Terminal Aerodrome Forecast
Issued by NWS Huntsville, AL

Home | Current Version | Previous Version | Text Only | Print | Product List | Glossary On
Versions: 1 2 3 4 5 6 7 8 9 10 11 12 13 14 15 16 17 18 19 20 21 22 23 24 25 26
000
FTUS44 KHUN 210520
TAFMSL
TAF
KMSL 210520Z 2106/2206 32008KT P6SM VCSH BKN020 OVC050
      TEMPO 2106/2107 30010G20KT 6SM -SHRA BR OVC015
     FM211000 29008KT P6SM FEW020 BKN050
     FM211800 30015G22KT P6SM SCT100
     FM220100 33005KT P6SM SKC=

USA.gov is the U.S. government's official web portal to all federal, state and local government web resources and services.